sensor_id;sensor_type;location;lat;lon;timestamp;P1;durP1;ratioP1;P2;durP2;ratioP2
9739;SDS011;4909;42.680;26.324;2023-05-09T00:00:45;9.50;;;3.90;;
9739;SDS011;4909;42.680;26.324;2023-05-09T00:03:12;11.13;;;4.30;;
9739;SDS011;4909;42.680;26.324;2023-05-09T00:05:39;12.20;;;4.63;;
9739;SDS011;4909;42.680;26.324;2023-05-09T00:08:06;8.93;;;3.47;;
9739;SDS011;4909;42.680;26.324;2023-05-09T00:10:33;10.73;;;3.83;;
9739;SDS011;4909;42.680;26.324;2023-05-09T00:13:01;11.57;;;4.13;;
9739;SDS011;4909;42.680;26.324;2023-05-09T00:15:28;12.10;;;4.33;;
9739;SDS011;4909;42.680;26.324;2023-05-09T00:17:56;10.67;;;3.77;;
9739;SDS011;4909;42.680;26.324;2023-05-09T00:20:23;12.53;;;4.50;;
9739;SDS011;4909;42.680;26.324;2023-05-09T00:22:50;8.30;;;3.23;;
9739;SDS011;4909;42.680;26.324;2023-05-09T00:25:17;10.17;;;3.57;;
9739;SDS011;4909;42.680;26.324;2023-05-09T00:27:43;8.70;;;3.43;;
9739;SDS011;4909;42.680;26.324;2023-05-09T00:30:12;9.23;;;3.17;;
9739;SDS011;4909;42.680;26.324;2023-05-09T00:32:39;10.20;;;3.53;;
9739;SDS011;4909;42.680;26.324;2023-05-09T00:35:06;11.93;;;3.77;;
9739;SDS011;4909;42.680;26.324;2023-05-09T00:37:34;10.70;;;3.70;;
9739;SDS011;4909;42.680;26.324;2023-05-09T00:40:01;10.57;;;3.67;;
9739;SDS011;4909;42.680;26.324;2023-05-09T00:42:28;7.30;;;3.03;;
9739;SDS011;4909;42.680;26.324;2023-05-09T00:44:55;10.07;;;3.63;;
9739;SDS011;4909;42.680;26.324;2023-05-09T00:47:23;8.93;;;3.10;;
9739;SDS011;4909;42.680;26.324;2023-05-09T00:49:50;9.97;;;3.37;;
9739;SDS011;4909;42.680;26.324;2023-05-09T00:52:17;9.20;;;3.40;;
9739;SDS011;4909;42.680;26.324;2023-05-09T00:54:47;8.57;;;3.20;;
9739;SDS011;4909;42.680;26.324;2023-05-09T00:57:14;9.67;;;3.43;;
9739;SDS011;4909;42.680;26.324;2023-05-09T00:59:41;10.67;;;3.67;;
9739;SDS011;4909;42.680;26.324;2023-05-09T01:02:08;8.80;;;2.97;;
9739;SDS011;4909;42.680;26.324;2023-05-09T01:04:36;10.23;;;3.67;;
9739;SDS011;4909;42.680;26.324;2023-05-09T01:07:05;8.90;;;3.13;;
9739;SDS011;4909;42.680;26.324;2023-05-09T01:09:37;8.77;;;3.20;;
9739;SDS011;4909;42.680;26.324;2023-05-09T01:12:10;8.37;;;2.87;;
9739;SDS011;4909;42.680;26.324;2023-05-09T01:14:43;9.10;;;3.30;;
9739;SDS011;4909;42.680;26.324;2023-05-09T01:17:18;11.17;;;3.73;;
9739;SDS011;4909;42.680;26.324;2023-05-09T01:20:00;9.90;;;3.43;;
9739;SDS011;4909;42.680;26.324;2023-05-09T01:22:35;9.73;;;3.17;;
9739;SDS011;4909;42.680;26.324;2023-05-09T01:28:16;7.80;;;2.87;;
9739;SDS011;4909;42.680;26.324;2023-05-09T01:30:52;8.97;;;3.13;;
9739;SDS011;4909;42.680;26.324;2023-05-09T01:33:20;10.77;;;3.63;;
9739;SDS011;4909;42.680;26.324;2023-05-09T01:35:50;11.97;;;4.17;;
9739;SDS011;4909;42.680;26.324;2023-05-09T01:38:23;8.00;;;3.10;;
9739;SDS011;4909;42.680;26.324;2023-05-09T01:40:52;9.33;;;3.40;;
9739;SDS011;4909;42.680;26.324;2023-05-09T01:43:20;11.53;;;4.00;;
9739;SDS011;4909;42.680;26.324;2023-05-09T01:45:50;9.90;;;3.70;;
9739;SDS011;4909;42.680;26.324;2023-05-09T01:48:19;9.90;;;3.53;;
9739;SDS011;4909;42.680;26.324;2023-05-09T01:50:50;8.40;;;3.13;;
9739;SDS011;4909;42.680;26.324;2023-05-09T01:53:18;10.47;;;4.00;;
9739;SDS011;4909;42.680;26.324;2023-05-09T01:55:47;11.13;;;4.07;;
9739;SDS011;4909;42.680;26.324;2023-05-09T01:58:16;10.27;;;3.63;;
9739;SDS011;4909;42.680;26.324;2023-05-09T02:00:45;11.37;;;4.07;;
9739;SDS011;4909;42.680;26.324;2023-05-09T02:03:13;8.83;;;3.50;;
9739;SDS011;4909;42.680;26.324;2023-05-09T02:05:42;10.87;;;3.87;;
9739;SDS011;4909;42.680;26.324;2023-05-09T02:08:10;11.23;;;4.27;;
9739;SDS011;4909;42.680;26.324;2023-05-09T02:10:39;9.47;;;3.73;;
9739;SDS011;4909;42.680;26.324;2023-05-09T02:13:07;11.13;;;4.03;;
9739;SDS011;4909;42.680;26.324;2023-05-09T02:15:35;11.43;;;4.53;;
9739;SDS011;4909;42.680;26.324;2023-05-09T02:18:02;9.93;;;3.97;;
9739;SDS011;4909;42.680;26.324;2023-05-09T02:20:30;9.60;;;3.77;;
9739;SDS011;4909;42.680;26.324;2023-05-09T02:23:01;11.10;;;4.17;;
9739;SDS011;4909;42.680;26.324;2023-05-09T02:25:28;13.00;;;4.40;;
9739;SDS011;4909;42.680;26.324;2023-05-09T02:27:56;7.77;;;3.50;;
9739;SDS011;4909;42.680;26.324;2023-05-09T02:30:25;11.57;;;3.87;;
9739;SDS011;4909;42.680;26.324;2023-05-09T02:32:56;7.83;;;3.13;;
9739;SDS011;4909;42.680;26.324;2023-05-09T02:35:27;10.47;;;3.93;;
9739;SDS011;4909;42.680;26.324;2023-05-09T02:37:54;8.13;;;3.30;;
9739;SDS011;4909;42.680;26.324;2023-05-09T02:40:24;11.00;;;3.90;;
9739;SDS011;4909;42.680;26.324;2023-05-09T02:42:53;10.73;;;4.00;;
9739;SDS011;4909;42.680;26.324;2023-05-09T02:45:20;10.43;;;3.70;;
9739;SDS011;4909;42.680;26.324;2023-05-09T02:47:47;9.83;;;3.53;;
9739;SDS011;4909;42.680;26.324;2023-05-09T02:50:14;11.33;;;3.97;;
9739;SDS011;4909;42.680;26.324;2023-05-09T02:52:41;10.03;;;3.60;;
9739;SDS011;4909;42.680;26.324;2023-05-09T02:55:08;7.83;;;3.17;;
9739;SDS011;4909;42.680;26.324;2023-05-09T02:57:36;9.77;;;3.50;;
9739;SDS011;4909;42.680;26.324;2023-05-09T03:00:03;11.10;;;4.00;;
9739;SDS011;4909;42.680;26.324;2023-05-09T03:02:33;9.93;;;3.60;;
9739;SDS011;4909;42.680;26.324;2023-05-09T03:05:00;8.97;;;3.33;;
9739;SDS011;4909;42.680;26.324;2023-05-09T03:07:27;10.97;;;3.63;;
9739;SDS011;4909;42.680;26.324;2023-05-09T03:09:54;9.67;;;3.57;;
9739;SDS011;4909;42.680;26.324;2023-05-09T03:12:20;8.03;;;3.27;;
9739;SDS011;4909;42.680;26.324;2023-05-09T03:14:49;9.03;;;3.27;;
9739;SDS011;4909;42.680;26.324;2023-05-09T03:17:15;9.47;;;3.33;;
9739;SDS011;4909;42.680;26.324;2023-05-09T03:19:45;9.53;;;3.33;;
9739;SDS011;4909;42.680;26.324;2023-05-09T03:22:12;7.47;;;3.00;;
9739;SDS011;4909;42.680;26.324;2023-05-09T03:24:39;8.30;;;3.27;;
9739;SDS011;4909;42.680;26.324;2023-05-09T03:27:05;13.23;;;4.20;;
9739;SDS011;4909;42.680;26.324;2023-05-09T03:29:32;10.13;;;3.90;;
9739;SDS011;4909;42.680;26.324;2023-05-09T03:32:00;10.20;;;3.60;;
9739;SDS011;4909;42.680;26.324;2023-05-09T03:34:27;9.83;;;3.47;;
9739;SDS011;4909;42.680;26.324;2023-05-09T03:36:54;10.27;;;3.57;;
9739;SDS011;4909;42.680;26.324;2023-05-09T03:39:21;10.67;;;3.47;;
9739;SDS011;4909;42.680;26.324;2023-05-09T03:41:48;11.33;;;3.70;;
9739;SDS011;4909;42.680;26.324;2023-05-09T03:44:15;8.40;;;3.20;;
9739;SDS011;4909;42.680;26.324;2023-05-09T03:46:42;11.07;;;3.70;;
9739;SDS011;4909;42.680;26.324;2023-05-09T03:49:10;9.63;;;3.47;;
9739;SDS011;4909;42.680;26.324;2023-05-09T03:51:37;9.77;;;3.43;;
9739;SDS011;4909;42.680;26.324;2023-05-09T03:54:04;8.43;;;3.07;;
9739;SDS011;4909;42.680;26.324;2023-05-09T03:56:31;7.20;;;3.10;;
9739;SDS011;4909;42.680;26.324;2023-05-09T03:58:57;11.70;;;3.97;;
9739;SDS011;4909;42.680;26.324;2023-05-09T04:01:24;9.90;;;3.63;;
9739;SDS011;4909;42.680;26.324;2023-05-09T04:03:51;11.30;;;3.70;;
9739;SDS011;4909;42.680;26.324;2023-05-09T04:06:20;9.17;;;3.23;;
9739;SDS011;4909;42.680;26.324;2023-05-09T04:08:47;10.90;;;3.67;;
9739;SDS011;4909;42.680;26.324;2023-05-09T04:11:13;8.77;;;3.20;;
9739;SDS011;4909;42.680;26.324;2023-05-09T04:13:40;8.77;;;3.47;;
9739;SDS011;4909;42.680;26.324;2023-05-09T04:16:07;9.23;;;3.27;;
9739;SDS011;4909;42.680;26.324;2023-05-09T04:18:34;9.47;;;3.30;;
9739;SDS011;4909;42.680;26.324;2023-05-09T04:21:03;7.13;;;3.07;;
9739;SDS011;4909;42.680;26.324;2023-05-09T04:23:32;10.30;;;3.63;;
9739;SDS011;4909;42.680;26.324;2023-05-09T04:25:58;11.67;;;4.10;;
9739;SDS011;4909;42.680;26.324;2023-05-09T04:28:25;10.40;;;3.93;;
9739;SDS011;4909;42.680;26.324;2023-05-09T04:30:52;9.80;;;3.67;;
9739;SDS011;4909;42.680;26.324;2023-05-09T04:33:19;8.20;;;3.40;;
9739;SDS011;4909;42.680;26.324;2023-05-09T04:35:48;11.43;;;4.10;;
9739;SDS011;4909;42.680;26.324;2023-05-09T04:38:15;10.73;;;3.77;;
9739;SDS011;4909;42.680;26.324;2023-05-09T04:40:43;12.50;;;4.17;;
9739;SDS011;4909;42.680;26.324;2023-05-09T04:43:10;11.83;;;4.27;;
9739;SDS011;4909;42.680;26.324;2023-05-09T04:45:37;9.20;;;3.70;;
9739;SDS011;4909;42.680;26.324;2023-05-09T04:48:03;9.67;;;3.70;;
9739;SDS011;4909;42.680;26.324;2023-05-09T04:50:30;12.03;;;4.53;;
9739;SDS011;4909;42.680;26.324;2023-05-09T04:52:57;9.90;;;3.93;;
9739;SDS011;4909;42.680;26.324;2023-05-09T04:55:24;7.73;;;3.40;;
9739;SDS011;4909;42.680;26.324;2023-05-09T04:57:52;12.73;;;4.33;;
9739;SDS011;4909;42.680;26.324;2023-05-09T05:00:19;12.57;;;4.37;;
9739;SDS011;4909;42.680;26.324;2023-05-09T05:02:46;9.30;;;3.77;;
9739;SDS011;4909;42.680;26.324;2023-05-09T05:05:12;6.43;;;3.10;;
9739;SDS011;4909;42.680;26.324;2023-05-09T05:07:39;9.17;;;3.73;;
9739;SDS011;4909;42.680;26.324;2023-05-09T05:10:06;11.60;;;4.17;;
9739;SDS011;4909;42.680;26.324;2023-05-09T05:12:34;8.27;;;3.50;;
9739;SDS011;4909;42.680;26.324;2023-05-09T05:15:02;11.33;;;4.40;;
9739;SDS011;4909;42.680;26.324;2023-05-09T05:17:29;11.57;;;4.33;;
9739;SDS011;4909;42.680;26.324;2023-05-09T05:19:56;8.47;;;3.53;;
9739;SDS011;4909;42.680;26.324;2023-05-09T05:22:23;10.87;;;4.00;;
9739;SDS011;4909;42.680;26.324;2023-05-09T05:24:50;10.00;;;3.87;;
9739;SDS011;4909;42.680;26.324;2023-05-09T05:27:17;11.17;;;4.50;;
9739;SDS011;4909;42.680;26.324;2023-05-09T05:29:43;11.07;;;4.47;;
9739;SDS011;4909;42.680;26.324;2023-05-09T05:32:11;11.60;;;4.50;;
9739;SDS011;4909;42.680;26.324;2023-05-09T05:34:38;9.93;;;3.83;;
9739;SDS011;4909;42.680;26.324;2023-05-09T05:37:05;12.53;;;4.70;;
9739;SDS011;4909;42.680;26.324;2023-05-09T05:39:32;8.47;;;3.80;;
9739;SDS011;4909;42.680;26.324;2023-05-09T05:41:58;12.63;;;4.40;;
9739;SDS011;4909;42.680;26.324;2023-05-09T05:44:25;12.70;;;4.70;;
9739;SDS011;4909;42.680;26.324;2023-05-09T05:46:52;6.57;;;3.30;;
9739;SDS011;4909;42.680;26.324;2023-05-09T05:49:20;5.47;;;3.00;;
9739;SDS011;4909;42.680;26.324;2023-05-09T05:51:49;5.97;;;3.80;;
9739;SDS011;4909;42.680;26.324;2023-05-09T05:54:15;5.77;;;3.50;;
9739;SDS011;4909;42.680;26.324;2023-05-09T05:56:42;3.37;;;3.07;;
9739;SDS011;4909;42.680;26.324;2023-05-09T05:59:09;4.90;;;3.40;;
9739;SDS011;4909;42.680;26.324;2023-05-09T06:01:36;3.63;;;2.97;;
9739;SDS011;4909;42.680;26.324;2023-05-09T06:04:03;3.83;;;2.73;;
9739;SDS011;4909;42.680;26.324;2023-05-09T06:06:31;5.63;;;3.80;;
9739;SDS011;4909;42.680;26.324;2023-05-09T06:08:58;4.20;;;2.87;;
9739;SDS011;4909;42.680;26.324;2023-05-09T06:11:25;5.87;;;3.10;;
9739;SDS011;4909;42.680;26.324;2023-05-09T06:13:52;2.87;;;2.60;;
9739;SDS011;4909;42.680;26.324;2023-05-09T06:16:18;3.80;;;2.53;;
9739;SDS011;4909;42.680;26.324;2023-05-09T06:18:46;6.30;;;3.10;;
9739;SDS011;4909;42.680;26.324;2023-05-09T06:21:13;2.93;;;2.60;;
9739;SDS011;4909;42.680;26.324;2023-05-09T06:23:41;5.37;;;3.00;;
9739;SDS011;4909;42.680;26.324;2023-05-09T06:26:07;6.20;;;3.23;;
9739;SDS011;4909;42.680;26.324;2023-05-09T06:28:34;2.83;;;2.30;;
9739;SDS011;4909;42.680;26.324;2023-05-09T06:31:01;8.17;;;3.40;;
9739;SDS011;4909;42.680;26.324;2023-05-09T06:33:28;3.70;;;2.47;;
9739;SDS011;4909;42.680;26.324;2023-05-09T06:35:55;4.30;;;2.47;;
9739;SDS011;4909;42.680;26.324;2023-05-09T06:38:21;5.63;;;2.77;;
9739;SDS011;4909;42.680;26.324;2023-05-09T06:40:49;5.07;;;2.93;;
9739;SDS011;4909;42.680;26.324;2023-05-09T06:43:16;4.80;;;2.80;;
9739;SDS011;4909;42.680;26.324;2023-05-09T06:45:43;4.73;;;2.80;;
9739;SDS011;4909;42.680;26.324;2023-05-09T06:48:10;8.13;;;3.47;;
9739;SDS011;4909;42.680;26.324;2023-05-09T06:50:37;6.20;;;3.20;;
9739;SDS011;4909;42.680;26.324;2023-05-09T06:53:03;7.73;;;3.50;;
9739;SDS011;4909;42.680;26.324;2023-05-09T06:55:30;7.33;;;3.63;;
9739;SDS011;4909;42.680;26.324;2023-05-09T06:57:58;4.87;;;2.97;;
9739;SDS011;4909;42.680;26.324;2023-05-09T07:00:25;4.57;;;2.63;;
9739;SDS011;4909;42.680;26.324;2023-05-09T07:02:52;4.53;;;2.67;;
9739;SDS011;4909;42.680;26.324;2023-05-09T07:05:19;3.70;;;2.40;;
9739;SDS011;4909;42.680;26.324;2023-05-09T07:07:45;6.63;;;3.17;;
9739;SDS011;4909;42.680;26.324;2023-05-09T07:10:12;9.43;;;3.93;;
9739;SDS011;4909;42.680;26.324;2023-05-09T07:12:39;5.60;;;3.07;;
9739;SDS011;4909;42.680;26.324;2023-05-09T07:15:08;5.13;;;2.93;;
9739;SDS011;4909;42.680;26.324;2023-05-09T07:17:36;3.43;;;2.77;;
9739;SDS011;4909;42.680;26.324;2023-05-09T07:20:03;5.27;;;3.10;;
9739;SDS011;4909;42.680;26.324;2023-05-09T07:22:31;4.03;;;2.53;;
9739;SDS011;4909;42.680;26.324;2023-05-09T07:24:58;3.70;;;2.50;;
9739;SDS011;4909;42.680;26.324;2023-05-09T07:27:24;5.07;;;2.83;;
9739;SDS011;4909;42.680;26.324;2023-05-09T07:29:51;12.90;;;4.43;;
9739;SDS011;4909;42.680;26.324;2023-05-09T07:32:19;5.27;;;2.63;;
9739;SDS011;4909;42.680;26.324;2023-05-09T07:34:46;5.87;;;3.00;;
9739;SDS011;4909;42.680;26.324;2023-05-09T07:37:13;4.13;;;2.60;;
9739;SDS011;4909;42.680;26.324;2023-05-09T07:39:40;5.20;;;2.80;;
9739;SDS011;4909;42.680;26.324;2023-05-09T07:42:07;9.23;;;3.77;;
9739;SDS011;4909;42.680;26.324;2023-05-09T07:44:33;13.30;;;4.40;;
9739;SDS011;4909;42.680;26.324;2023-05-09T07:47:00;9.60;;;3.77;;
9739;SDS011;4909;42.680;26.324;2023-05-09T07:49:30;4.40;;;2.63;;
9739;SDS011;4909;42.680;26.324;2023-05-09T07:51:57;3.87;;;2.57;;
9739;SDS011;4909;42.680;26.324;2023-05-09T07:54:24;4.00;;;2.80;;
9739;SDS011;4909;42.680;26.324;2023-05-09T07:56:51;5.63;;;3.07;;
9739;SDS011;4909;42.680;26.324;2023-05-09T07:59:17;5.20;;;3.10;;
9739;SDS011;4909;42.680;26.324;2023-05-09T08:01:44;5.83;;;3.13;;
9739;SDS011;4909;42.680;26.324;2023-05-09T08:04:11;4.27;;;2.90;;
9739;SDS011;4909;42.680;26.324;2023-05-09T08:06:39;3.50;;;2.70;;
9739;SDS011;4909;42.680;26.324;2023-05-09T08:09:06;4.93;;;3.33;;
9739;SDS011;4909;42.680;26.324;2023-05-09T08:11:33;4.10;;;2.73;;
9739;SDS011;4909;42.680;26.324;2023-05-09T08:14:00;9.90;;;4.00;;
9739;SDS011;4909;42.680;26.324;2023-05-09T08:16:27;10.47;;;4.43;;
9739;SDS011;4909;42.680;26.324;2023-05-09T08:18:54;8.23;;;3.77;;
9739;SDS011;4909;42.680;26.324;2023-05-09T08:21:20;9.50;;;3.93;;
9739;SDS011;4909;42.680;26.324;2023-05-09T08:23:49;8.50;;;3.77;;
9739;SDS011;4909;42.680;26.324;2023-05-09T08:26:16;9.87;;;4.40;;
9739;SDS011;4909;42.680;26.324;2023-05-09T08:28:43;6.97;;;3.43;;
9739;SDS011;4909;42.680;26.324;2023-05-09T08:31:10;7.33;;;3.63;;
9739;SDS011;4909;42.680;26.324;2023-05-09T08:33:37;11.27;;;4.53;;
9739;SDS011;4909;42.680;26.324;2023-05-09T08:36:04;9.87;;;4.43;;
9739;SDS011;4909;42.680;26.324;2023-05-09T08:38:32;7.63;;;3.80;;
9739;SDS011;4909;42.680;26.324;2023-05-09T08:41:01;10.33;;;4.47;;
9739;SDS011;4909;42.680;26.324;2023-05-09T08:43:28;8.47;;;3.87;;
9739;SDS011;4909;42.680;26.324;2023-05-09T08:45:58;7.60;;;3.97;;
9739;SDS011;4909;42.680;26.324;2023-05-09T08:48:26;11.00;;;4.87;;
9739;SDS011;4909;42.680;26.324;2023-05-09T08:50:54;10.67;;;4.73;;
9739;SDS011;4909;42.680;26.324;2023-05-09T08:53:21;7.17;;;4.33;;
9739;SDS011;4909;42.680;26.324;2023-05-09T08:55:48;7.23;;;4.30;;
9739;SDS011;4909;42.680;26.324;2023-05-09T08:58:18;7.50;;;4.40;;
9739;SDS011;4909;42.680;26.324;2023-05-09T09:00:46;4.43;;;3.63;;
9739;SDS011;4909;42.680;26.324;2023-05-09T09:03:14;7.33;;;4.23;;
9739;SDS011;4909;42.680;26.324;2023-05-09T09:05:43;5.60;;;3.77;;
9739;SDS011;4909;42.680;26.324;2023-05-09T09:08:11;5.37;;;3.60;;
9739;SDS011;4909;42.680;26.324;2023-05-09T09:10:39;5.77;;;3.77;;
9739;SDS011;4909;42.680;26.324;2023-05-09T09:13:11;6.13;;;4.00;;
9739;SDS011;4909;42.680;26.324;2023-05-09T09:15:40;5.53;;;4.00;;
9739;SDS011;4909;42.680;26.324;2023-05-09T09:18:09;4.20;;;3.70;;
9739;SDS011;4909;42.680;26.324;2023-05-09T09:20:39;5.83;;;4.30;;
9739;SDS011;4909;42.680;26.324;2023-05-09T09:23:10;6.17;;;4.30;;
9739;SDS011;4909;42.680;26.324;2023-05-09T09:25:41;5.90;;;4.27;;
9739;SDS011;4909;42.680;26.324;2023-05-09T09:28:11;4.50;;;3.77;;
9739;SDS011;4909;42.680;26.324;2023-05-09T09:30:43;5.37;;;4.17;;
9739;SDS011;4909;42.680;26.324;2023-05-09T09:33:17;4.10;;;3.63;;
9739;SDS011;4909;42.680;26.324;2023-05-09T09:35:44;5.73;;;3.90;;
9739;SDS011;4909;42.680;26.324;2023-05-09T09:38:13;10.57;;;5.30;;
9739;SDS011;4909;42.680;26.324;2023-05-09T09:40:43;4.50;;;4.10;;
9739;SDS011;4909;42.680;26.324;2023-05-09T09:43:14;9.43;;;5.00;;
9739;SDS011;4909;42.680;26.324;2023-05-09T09:45:40;6.73;;;4.57;;
9739;SDS011;4909;42.680;26.324;2023-05-09T09:48:09;10.60;;;5.60;;
9739;SDS011;4909;42.680;26.324;2023-05-09T09:50:35;8.07;;;5.00;;
9739;SDS011;4909;42.680;26.324;2023-05-09T09:53:02;6.60;;;5.00;;
9739;SDS011;4909;42.680;26.324;2023-05-09T09:55:30;6.57;;;5.17;;
9739;SDS011;4909;42.680;26.324;2023-05-09T09:57:57;5.93;;;5.40;;
9739;SDS011;4909;42.680;26.324;2023-05-09T10:00:24;5.57;;;5.07;;
9739;SDS011;4909;42.680;26.324;2023-05-09T10:02:54;6.27;;;5.57;;
9739;SDS011;4909;42.680;26.324;2023-05-09T10:05:22;6.37;;;5.80;;
9739;SDS011;4909;42.680;26.324;2023-05-09T10:07:50;5.67;;;5.03;;
9739;SDS011;4909;42.680;26.324;2023-05-09T10:10:19;7.13;;;5.80;;
9739;SDS011;4909;42.680;26.324;2023-05-09T10:12:46;6.83;;;6.10;;
9739;SDS011;4909;42.680;26.324;2023-05-09T10:15:15;6.10;;;5.57;;
9739;SDS011;4909;42.680;26.324;2023-05-09T10:17:45;5.37;;;5.17;;
9739;SDS011;4909;42.680;26.324;2023-05-09T10:20:14;5.60;;;5.17;;
9739;SDS011;4909;42.680;26.324;2023-05-09T10:22:43;5.47;;;4.97;;
9739;SDS011;4909;42.680;26.324;2023-05-09T10:25:13;5.00;;;4.60;;
9739;SDS011;4909;42.680;26.324;2023-05-09T10:27:43;6.03;;;5.50;;
9739;SDS011;4909;42.680;26.324;2023-05-09T10:30:12;8.13;;;6.40;;
9739;SDS011;4909;42.680;26.324;2023-05-09T10:32:46;10.67;;;6.90;;
9739;SDS011;4909;42.680;26.324;2023-05-09T10:35:16;8.67;;;6.33;;
9739;SDS011;4909;42.680;26.324;2023-05-09T10:37:43;6.60;;;5.97;;
9739;SDS011;4909;42.680;26.324;2023-05-09T10:40:10;7.57;;;6.77;;
9739;SDS011;4909;42.680;26.324;2023-05-09T10:42:39;5.57;;;5.10;;
9739;SDS011;4909;42.680;26.324;2023-05-09T10:45:24;11.30;;;6.07;;
9739;SDS011;4909;42.680;26.324;2023-05-09T10:47:52;14.40;;;6.43;;
9739;SDS011;4909;42.680;26.324;2023-05-09T10:50:22;11.43;;;6.33;;
9739;SDS011;4909;42.680;26.324;2023-05-09T10:55:38;5.43;;;5.07;;
9739;SDS011;4909;42.680;26.324;2023-05-09T10:58:17;6.43;;;5.70;;
9739;SDS011;4909;42.680;26.324;2023-05-09T11:00:46;12.80;;;6.97;;
9739;SDS011;4909;42.680;26.324;2023-05-09T11:03:13;9.73;;;6.33;;
9739;SDS011;4909;42.680;26.324;2023-05-09T11:05:44;12.77;;;6.87;;
9739;SDS011;4909;42.680;26.324;2023-05-09T11:08:19;12.70;;;7.13;;
9739;SDS011;4909;42.680;26.324;2023-05-09T11:10:47;11.10;;;6.17;;
9739;SDS011;4909;42.680;26.324;2023-05-09T11:13:17;13.03;;;7.17;;
9739;SDS011;4909;42.680;26.324;2023-05-09T11:18:49;9.83;;;5.67;;
9739;SDS011;4909;42.680;26.324;2023-05-09T11:21:18;12.37;;;6.17;;
9739;SDS011;4909;42.680;26.324;2023-05-09T11:23:46;12.70;;;5.97;;
9739;SDS011;4909;42.680;26.324;2023-05-09T11:26:13;11.20;;;5.77;;
9739;SDS011;4909;42.680;26.324;2023-05-09T11:28:41;9.07;;;5.47;;
9739;SDS011;4909;42.680;26.324;2023-05-09T11:31:17;13.47;;;6.60;;
9739;SDS011;4909;42.680;26.324;2023-05-09T11:33:45;13.83;;;6.60;;
9739;SDS011;4909;42.680;26.324;2023-05-09T11:36:20;16.10;;;6.93;;
9739;SDS011;4909;42.680;26.324;2023-05-09T11:39:00;14.03;;;6.00;;
9739;SDS011;4909;42.680;26.324;2023-05-09T11:41:29;9.33;;;5.40;;
9739;SDS011;4909;42.680;26.324;2023-05-09T11:43:56;11.10;;;6.27;;
9739;SDS011;4909;42.680;26.324;2023-05-09T11:46:24;12.97;;;6.30;;
9739;SDS011;4909;42.680;26.324;2023-05-09T11:48:52;11.53;;;6.20;;
9739;SDS011;4909;42.680;26.324;2023-05-09T11:51:21;10.57;;;6.27;;
9739;SDS011;4909;42.680;26.324;2023-05-09T11:53:48;10.93;;;5.90;;
9739;SDS011;4909;42.680;26.324;2023-05-09T11:56:18;10.83;;;6.20;;
9739;SDS011;4909;42.680;26.324;2023-05-09T11:58:48;11.63;;;7.03;;
9739;SDS011;4909;42.680;26.324;2023-05-09T12:01:16;10.10;;;6.63;;
9739;SDS011;4909;42.680;26.324;2023-05-09T12:03:43;9.47;;;6.73;;
9739;SDS011;4909;42.680;26.324;2023-05-09T12:06:13;10.33;;;7.03;;
9739;SDS011;4909;42.680;26.324;2023-05-09T12:08:43;9.73;;;6.80;;
9739;SDS011;4909;42.680;26.324;2023-05-09T12:11:11;11.50;;;7.73;;
9739;SDS011;4909;42.680;26.324;2023-05-09T12:13:45;13.07;;;7.97;;
9739;SDS011;4909;42.680;26.324;2023-05-09T12:16:12;13.77;;;7.30;;
9739;SDS011;4909;42.680;26.324;2023-05-09T12:18:43;10.47;;;7.70;;
9739;SDS011;4909;42.680;26.324;2023-05-09T12:21:11;9.90;;;7.20;;
9739;SDS011;4909;42.680;26.324;2023-05-09T12:23:38;11.43;;;7.93;;
9739;SDS011;4909;42.680;26.324;2023-05-09T12:26:06;12.83;;;7.67;;
9739;SDS011;4909;42.680;26.324;2023-05-09T12:28:33;10.37;;;7.57;;
9739;SDS011;4909;42.680;26.324;2023-05-09T12:31:00;12.60;;;7.70;;
9739;SDS011;4909;42.680;26.324;2023-05-09T12:33:28;12.20;;;7.13;;
9739;SDS011;4909;42.680;26.324;2023-05-09T12:36:02;12.03;;;6.33;;
9739;SDS011;4909;42.680;26.324;2023-05-09T12:38:31;12.53;;;6.20;;
9739;SDS011;4909;42.680;26.324;2023-05-09T12:41:01;13.00;;;6.07;;
9739;SDS011;4909;42.680;26.324;2023-05-09T12:43:30;14.23;;;6.73;;
9739;SDS011;4909;42.680;26.324;2023-05-09T12:45:58;11.40;;;5.67;;
9739;SDS011;4909;42.680;26.324;2023-05-09T12:48:27;9.47;;;5.67;;
9739;SDS011;4909;42.680;26.324;2023-05-09T12:50:54;8.77;;;4.87;;
9739;SDS011;4909;42.680;26.324;2023-05-09T12:53:24;11.67;;;5.77;;
9739;SDS011;4909;42.680;26.324;2023-05-09T12:55:53;11.53;;;5.40;;
9739;SDS011;4909;42.680;26.324;2023-05-09T12:58:21;12.10;;;5.70;;
9739;SDS011;4909;42.680;26.324;2023-05-09T13:00:49;8.63;;;4.60;;
9739;SDS011;4909;42.680;26.324;2023-05-09T13:03:22;11.20;;;5.07;;
9739;SDS011;4909;42.680;26.324;2023-05-09T13:05:54;10.20;;;5.03;;
9739;SDS011;4909;42.680;26.324;2023-05-09T13:08:22;11.40;;;5.27;;
9739;SDS011;4909;42.680;26.324;2023-05-09T13:10:49;13.33;;;5.87;;
9739;SDS011;4909;42.680;26.324;2023-05-09T13:13:16;6.83;;;3.97;;
9739;SDS011;4909;42.680;26.324;2023-05-09T13:15:43;10.70;;;4.70;;
9739;SDS011;4909;42.680;26.324;2023-05-09T13:18:12;8.13;;;4.07;;
9739;SDS011;4909;42.680;26.324;2023-05-09T13:20:39;7.10;;;3.90;;
9739;SDS011;4909;42.680;26.324;2023-05-09T13:23:05;11.07;;;4.60;;
9739;SDS011;4909;42.680;26.324;2023-05-09T13:25:32;8.60;;;4.37;;
9739;SDS011;4909;42.680;26.324;2023-05-09T13:27:59;11.43;;;4.80;;
9739;SDS011;4909;42.680;26.324;2023-05-09T13:30:26;9.97;;;4.50;;
9739;SDS011;4909;42.680;26.324;2023-05-09T13:32:53;9.33;;;4.40;;
9739;SDS011;4909;42.680;26.324;2023-05-09T13:35:21;11.60;;;4.90;;
9739;SDS011;4909;42.680;26.324;2023-05-09T13:37:49;8.43;;;4.40;;
9739;SDS011;4909;42.680;26.324;2023-05-09T13:40:16;14.13;;;5.87;;
9739;SDS011;4909;42.680;26.324;2023-05-09T13:42:42;9.70;;;4.87;;
9739;SDS011;4909;42.680;26.324;2023-05-09T13:45:09;8.93;;;4.80;;
9739;SDS011;4909;42.680;26.324;2023-05-09T13:47:36;13.30;;;5.77;;
9739;SDS011;4909;42.680;26.324;2023-05-09T13:50:03;9.53;;;4.97;;
9739;SDS011;4909;42.680;26.324;2023-05-09T13:52:32;12.07;;;5.30;;
9739;SDS011;4909;42.680;26.324;2023-05-09T13:54:59;7.13;;;4.27;;
9739;SDS011;4909;42.680;26.324;2023-05-09T13:57:26;9.80;;;5.03;;
9739;SDS011;4909;42.680;26.324;2023-05-09T13:59:52;11.37;;;5.17;;
9739;SDS011;4909;42.680;26.324;2023-05-09T14:02:19;17.07;;;6.60;;
9739;SDS011;4909;42.680;26.324;2023-05-09T14:04:46;10.60;;;5.23;;
9739;SDS011;4909;42.680;26.324;2023-05-09T14:07:13;9.20;;;4.60;;
9739;SDS011;4909;42.680;26.324;2023-05-09T14:09:42;13.03;;;5.37;;
9739;SDS011;4909;42.680;26.324;2023-05-09T14:12:08;9.27;;;4.43;;
9739;SDS011;4909;42.680;26.324;2023-05-09T14:14:35;10.57;;;4.77;;
9739;SDS011;4909;42.680;26.324;2023-05-09T14:17:02;9.80;;;4.57;;
9739;SDS011;4909;42.680;26.324;2023-05-09T14:19:29;13.03;;;5.30;;
9739;SDS011;4909;42.680;26.324;2023-05-09T14:21:55;10.30;;;5.27;;
9739;SDS011;4909;42.680;26.324;2023-05-09T14:24:22;9.43;;;5.23;;
9739;SDS011;4909;42.680;26.324;2023-05-09T14:26:51;9.50;;;4.77;;
9739;SDS011;4909;42.680;26.324;2023-05-09T14:29:18;7.67;;;4.33;;
9739;SDS011;4909;42.680;26.324;2023-05-09T14:31:44;11.73;;;5.53;;
9739;SDS011;4909;42.680;26.324;2023-05-09T14:34:11;9.10;;;5.03;;
9739;SDS011;4909;42.680;26.324;2023-05-09T14:36:38;12.77;;;5.77;;
9739;SDS011;4909;42.680;26.324;2023-05-09T14:39:05;10.70;;;5.33;;
9739;SDS011;4909;42.680;26.324;2023-05-09T14:41:31;10.37;;;5.87;;
9739;SDS011;4909;42.680;26.324;2023-05-09T14:43:59;8.13;;;5.47;;
9739;SDS011;4909;42.680;26.324;2023-05-09T14:46:26;10.30;;;5.57;;
9739;SDS011;4909;42.680;26.324;2023-05-09T14:48:53;10.97;;;5.97;;
9739;SDS011;4909;42.680;26.324;2023-05-09T14:51:21;11.77;;;6.27;;
9739;SDS011;4909;42.680;26.324;2023-05-09T14:53:48;10.33;;;5.90;;
9739;SDS011;4909;42.680;26.324;2023-05-09T14:56:17;15.20;;;6.93;;
9739;SDS011;4909;42.680;26.324;2023-05-09T14:58:44;10.73;;;6.10;;
9739;SDS011;4909;42.680;26.324;2023-05-09T15:01:12;10.57;;;6.10;;
9739;SDS011;4909;42.680;26.324;2023-05-09T15:03:39;10.93;;;6.50;;
9739;SDS011;4909;42.680;26.324;2023-05-09T15:06:06;12.27;;;6.73;;
9739;SDS011;4909;42.680;26.324;2023-05-09T15:08:33;10.10;;;6.17;;